Neuburg — 5BQJ2 — position and weather

sailwx.info

Track history (hours):
 
Tides and Currents Weather Stations Pressure Air Temp Water Temp Dewpoint Dewpoint Depression Visibility Wind Speed Wind Dir Waves Ship Positions

Neuburg

Last reported at 2014-Aug-22 18:33 UTC. Time now 2014-Aug-23 07:30 UTC.
Position N 38°10' W 000°24'.

Length 142 m; draft 6 m.

Type: Ship (hazmat cat A). MMSI: 212740000.

Date/timePositionNaut miles runAvg speedWind from/ knotsBaromVisibWave heightAir tempDewpointWater temp
2014-Aug-22 18:33N 38°10' W 000°24'1717.0
2014-Aug-22 17:34N 37°54' W 000°26'1716.6
2014-Aug-22 16:33N 37°37' W 000°30'1716.2
2014-Aug-22 15:32N 37°24' W 000°43'1716.7
2014-Aug-22 14:31N 37°13' W 000°59'5316.6
2014-Aug-22 11:20N 36°38' W 001°48'1516.5
2014-Aug-22 10:25N 36°28' W 002°02'1415.8
2014-Aug-22 09:33N 36°22' W 002°17'1716.7
2014-Aug-22 08:33N 36°19' W 002°38'12818.1
2014-Aug-22 01:28N 35°60' W 005°15'30616.1
2014-Aug-21 06:32N 32°29' W 009°43'3516.3
2014-Aug-21 04:23N 32°05' W 010°13'6116.0
2014-Aug-21 00:33N 31°19' W 011°01'1615.8
2014-Aug-20 23:31N 31°06' W 011°13'11 9.5
2014-Aug-20 22:23N 30°57' W 011°20'1415.5
2014-Aug-20 21:29N 30°47' W 011°31'3415.6
2014-Aug-20 19:18N 30°22' W 011°57'  
2014-Aug-16 18:33N 37°15' W 001°02'1616.3
2014-Aug-16 17:33N 37°26' W 000°46'45 1.7
2014-Aug-15 15:32N 38°07' W 000°24'1313.2
2014-Aug-15 14:33N 37°54' W 000°26'1313.1
2014-Aug-15 13:33N 37°42' W 000°29'1311.7
2014-Aug-15 12:28N 37°30' W 000°36'1112.2
2014-Aug-15 11:32N 37°22' W 000°46'1312.2
2014-Aug-15 10:28N 37°13' W 000°59'22113.7
2014-Aug-14 18:18N 35°59' W 005°18'26214.4
2014-Aug-14 00:10N 33°21' W 009°31'2513.7
2014-Aug-13 22:22N 33°05' W 009°54'4013.4
2014-Aug-13 19:23N 32°38' W 010°30'  
Track history (hours):
 
Tides and Currents Weather Stations Pressure Air Temp Water Temp Dewpoint Dewpoint Depression Visibility Wind Speed Wind Dir Waves Ship Positions

Neuburg

Last reported at 2014-Aug-22 18:33 UTC. Time now 2014-Aug-23 07:30 UTC.
Position N 38°10' W 000°24'.

Length 142 m; draft 6 m.

Type: Ship (hazmat cat A). MMSI: 212740000.

Date/timePositionNaut miles runAvg speedWind from/ knotsBaromVisibWave heightAir tempDewpointWater temp
2014-Aug-22 18:33N 38°10' W 000°24'1717.0
2014-Aug-22 17:34N 37°54' W 000°26'1716.6
2014-Aug-22 16:33N 37°37' W 000°30'1716.2
2014-Aug-22 15:32N 37°24' W 000°43'1716.7
2014-Aug-22 14:31N 37°13' W 000°59'5316.6
2014-Aug-22 11:20N 36°38' W 001°48'1516.5
2014-Aug-22 10:25N 36°28' W 002°02'1415.8
2014-Aug-22 09:33N 36°22' W 002°17'1716.7
2014-Aug-22 08:33N 36°19' W 002°38'12818.1
2014-Aug-22 01:28N 35°60' W 005°15'30616.1
2014-Aug-21 06:32N 32°29' W 009°43'3516.3
2014-Aug-21 04:23N 32°05' W 010°13'6116.0
2014-Aug-21 00:33N 31°19' W 011°01'1615.8
2014-Aug-20 23:31N 31°06' W 011°13'11 9.5
2014-Aug-20 22:23N 30°57' W 011°20'1415.5
2014-Aug-20 21:29N 30°47' W 011°31'3415.6
2014-Aug-20 19:18N 30°22' W 011°57'  
2014-Aug-16 18:33N 37°15' W 001°02'1616.3
2014-Aug-16 17:33N 37°26' W 000°46'45 1.7
2014-Aug-15 15:32N 38°07' W 000°24'1313.2
2014-Aug-15 14:33N 37°54' W 000°26'1313.1
2014-Aug-15 13:33N 37°42' W 000°29'1311.7
2014-Aug-15 12:28N 37°30' W 000°36'1112.2
2014-Aug-15 11:32N 37°22' W 000°46'1312.2
2014-Aug-15 10:28N 37°13' W 000°59'22113.7
2014-Aug-14 18:18N 35°59' W 005°18'26214.4
2014-Aug-14 00:10N 33°21' W 009°31'2513.7
2014-Aug-13 22:22N 33°05' W 009°54'4013.4
2014-Aug-13 19:23N 32°38' W 010°30'  

Dump ship's entire track history